sensor_id;sensor_type;location;lat;lon;timestamp;P1;durP1;ratioP1;P2;durP2;ratioP2
74753;SDS011;63271;53.340;-6.260;2024-03-23T07:01:07;3.70;;;1.20;;
74753;SDS011;63271;53.340;-6.260;2024-03-23T07:03:32;3.85;;;1.30;;
74753;SDS011;63271;53.340;-6.260;2024-03-23T07:06:00;7.93;;;1.42;;
74753;SDS011;63271;53.340;-6.260;2024-03-23T07:08:27;6.00;;;1.42;;
74753;SDS011;63271;53.340;-6.260;2024-03-23T07:10:53;6.45;;;1.50;;
74753;SDS011;63271;53.340;-6.260;2024-03-23T07:13:21;5.63;;;1.52;;
74753;SDS011;63271;53.340;-6.260;2024-03-23T07:15:54;4.95;;;1.40;;
74753;SDS011;63271;53.340;-6.260;2024-03-23T07:18:23;3.67;;;1.25;;
74753;SDS011;63271;53.340;-6.260;2024-03-23T07:20:55;7.38;;;1.45;;
74753;SDS011;63271;53.340;-6.260;2024-03-23T07:23:24;4.78;;;1.40;;
74753;SDS011;63271;53.340;-6.260;2024-03-23T07:25:59;6.93;;;1.60;;
74753;SDS011;63271;53.340;-6.260;2024-03-23T07:28:27;8.63;;;1.60;;
74753;SDS011;63271;53.340;-6.260;2024-03-23T07:33:41;3.88;;;1.30;;
74753;SDS011;63271;53.340;-6.260;2024-03-23T07:36:10;9.40;;;1.83;;
74753;SDS011;63271;53.340;-6.260;2024-03-23T07:38:39;6.75;;;1.58;;
74753;SDS011;63271;53.340;-6.260;2024-03-23T07:41:10;4.20;;;1.10;;
74753;SDS011;63271;53.340;-6.260;2024-03-23T07:43:44;9.00;;;1.45;;
74753;SDS011;63271;53.340;-6.260;2024-03-23T07:46:12;5.28;;;1.30;;
74753;SDS011;63271;53.340;-6.260;2024-03-23T07:48:39;7.93;;;1.63;;
74753;SDS011;63271;53.340;-6.260;2024-03-23T07:51:15;3.22;;;1.08;;
74753;SDS011;63271;53.340;-6.260;2024-03-23T07:53:42;6.25;;;1.52;;
74753;SDS011;63271;53.340;-6.260;2024-03-23T07:58:40;7.57;;;1.55;;
74753;SDS011;63271;53.340;-6.260;2024-03-23T08:03:37;9.75;;;1.63;;
74753;SDS011;63271;53.340;-6.260;2024-03-23T08:06:14;7.20;;;1.55;;
74753;SDS011;63271;53.340;-6.260;2024-03-23T08:08:41;6.47;;;1.48;;
74753;SDS011;63271;53.340;-6.260;2024-03-23T08:11:10;7.13;;;1.52;;
74753;SDS011;63271;53.340;-6.260;2024-03-23T08:13:38;4.40;;;1.15;;
74753;SDS011;63271;53.340;-6.260;2024-03-23T08:16:07;4.70;;;1.27;;
74753;SDS011;63271;53.340;-6.260;2024-03-23T08:18:36;6.00;;;1.70;;
74753;SDS011;63271;53.340;-6.260;2024-03-23T08:21:07;3.50;;;1.48;;
74753;SDS011;63271;53.340;-6.260;2024-03-23T08:23:35;10.52;;;1.80;;
74753;SDS011;63271;53.340;-6.260;2024-03-23T08:28:33;11.55;;;1.65;;
74753;SDS011;63271;53.340;-6.260;2024-03-23T08:31:03;5.80;;;1.20;;
74753;SDS011;63271;53.340;-6.260;2024-03-23T08:33:30;5.65;;;1.55;;
74753;SDS011;63271;53.340;-6.260;2024-03-23T08:36:02;7.32;;;1.38;;
74753;SDS011;63271;53.340;-6.260;2024-03-23T08:38:31;6.65;;;1.50;;
74753;SDS011;63271;53.340;-6.260;2024-03-23T08:40:59;6.20;;;1.48;;
74753;SDS011;63271;53.340;-6.260;2024-03-23T08:43:37;6.22;;;1.50;;
74753;SDS011;63271;53.340;-6.260;2024-03-23T08:46:10;7.50;;;1.60;;
74753;SDS011;63271;53.340;-6.260;2024-03-23T08:48:38;6.45;;;1.25;;
74753;SDS011;63271;53.340;-6.260;2024-03-23T08:51:04;5.10;;;1.52;;
74753;SDS011;63271;53.340;-6.260;2024-03-23T08:53:33;6.15;;;1.30;;
74753;SDS011;63271;53.340;-6.260;2024-03-23T08:56:02;6.57;;;1.83;;
74753;SDS011;63271;53.340;-6.260;2024-03-23T08:58:28;7.25;;;1.48;;
74753;SDS011;63271;53.340;-6.260;2024-03-23T09:00:55;1.95;;;0.80;;
74753;SDS011;63271;53.340;-6.260;2024-03-23T09:03:24;3.83;;;1.13;;
74753;SDS011;63271;53.340;-6.260;2024-03-23T09:05:52;4.35;;;1.10;;
74753;SDS011;63271;53.340;-6.260;2024-03-23T09:08:19;3.95;;;1.00;;
74753;SDS011;63271;53.340;-6.260;2024-03-23T09:10:45;7.95;;;1.58;;
74753;SDS011;63271;53.340;-6.260;2024-03-23T09:13:10;4.70;;;1.08;;
74753;SDS011;63271;53.340;-6.260;2024-03-23T09:15:36;3.85;;;1.08;;
74753;SDS011;63271;53.340;-6.260;2024-03-23T09:18:05;4.68;;;1.08;;
74753;SDS011;63271;53.340;-6.260;2024-03-23T09:20:33;5.05;;;1.40;;
74753;SDS011;63271;53.340;-6.260;2024-03-23T09:22:58;7.85;;;1.95;;
74753;SDS011;63271;53.340;-6.260;2024-03-23T09:25:24;4.47;;;1.10;;
74753;SDS011;63271;53.340;-6.260;2024-03-23T09:27:50;7.85;;;1.45;;
74753;SDS011;63271;53.340;-6.260;2024-03-23T09:30:18;4.63;;;1.20;;
74753;SDS011;63271;53.340;-6.260;2024-03-23T09:32:46;6.05;;;1.25;;
74753;SDS011;63271;53.340;-6.260;2024-03-23T09:35:11;6.60;;;1.27;;
74753;SDS011;63271;53.340;-6.260;2024-03-23T09:37:38;4.45;;;1.08;;
74753;SDS011;63271;53.340;-6.260;2024-03-23T09:40:10;5.63;;;1.30;;
74753;SDS011;63271;53.340;-6.260;2024-03-23T09:42:38;5.32;;;1.17;;
74753;SDS011;63271;53.340;-6.260;2024-03-23T09:45:06;6.07;;;1.30;;
74753;SDS011;63271;53.340;-6.260;2024-03-23T09:47:42;7.00;;;1.30;;
74753;SDS011;63271;53.340;-6.260;2024-03-23T09:50:12;4.53;;;1.08;;
74753;SDS011;63271;53.340;-6.260;2024-03-23T09:52:45;3.63;;;1.08;;
74753;SDS011;63271;53.340;-6.260;2024-03-23T09:55:11;2.55;;;1.20;;
74753;SDS011;63271;53.340;-6.260;2024-03-23T09:57:37;6.82;;;1.35;;
74753;SDS011;63271;53.340;-6.260;2024-03-23T10:00:05;4.90;;;1.20;;
74753;SDS011;63271;53.340;-6.260;2024-03-23T10:02:31;7.38;;;1.50;;
74753;SDS011;63271;53.340;-6.260;2024-03-23T10:04:57;2.85;;;1.00;;
74753;SDS011;63271;53.340;-6.260;2024-03-23T10:07:23;3.53;;;1.13;;
74753;SDS011;63271;53.340;-6.260;2024-03-23T10:09:53;3.10;;;1.25;;
74753;SDS011;63271;53.340;-6.260;2024-03-23T10:12:19;2.58;;;0.88;;
74753;SDS011;63271;53.340;-6.260;2024-03-23T10:14:45;2.97;;;0.93;;
74753;SDS011;63271;53.340;-6.260;2024-03-23T10:17:15;6.63;;;1.20;;
74753;SDS011;63271;53.340;-6.260;2024-03-23T10:19:43;4.63;;;1.25;;
74753;SDS011;63271;53.340;-6.260;2024-03-23T10:22:13;2.05;;;0.63;;
74753;SDS011;63271;53.340;-6.260;2024-03-23T10:24:45;3.55;;;0.73;;
74753;SDS011;63271;53.340;-6.260;2024-03-23T10:27:17;5.30;;;1.20;;
74753;SDS011;63271;53.340;-6.260;2024-03-23T10:29:44;4.60;;;0.90;;
74753;SDS011;63271;53.340;-6.260;2024-03-23T10:32:16;4.10;;;1.02;;
74753;SDS011;63271;53.340;-6.260;2024-03-23T10:34:45;3.38;;;1.05;;
74753;SDS011;63271;53.340;-6.260;2024-03-23T10:37:11;3.08;;;1.00;;
74753;SDS011;63271;53.340;-6.260;2024-03-23T10:39:40;5.45;;;1.20;;
74753;SDS011;63271;53.340;-6.260;2024-03-23T10:42:07;3.50;;;0.75;;
74753;SDS011;63271;53.340;-6.260;2024-03-23T10:44:36;5.45;;;1.58;;
74753;SDS011;63271;53.340;-6.260;2024-03-23T10:47:04;3.08;;;0.88;;
74753;SDS011;63271;53.340;-6.260;2024-03-23T10:49:33;6.95;;;1.15;;
74753;SDS011;63271;53.340;-6.260;2024-03-23T10:52:01;3.72;;;1.02;;
74753;SDS011;63271;53.340;-6.260;2024-03-23T10:54:32;2.35;;;0.93;;
74753;SDS011;63271;53.340;-6.260;2024-03-23T10:57:05;1.63;;;0.70;;
74753;SDS011;63271;53.340;-6.260;2024-03-23T10:59:31;4.47;;;1.17;;
74753;SDS011;63271;53.340;-6.260;2024-03-23T11:01:57;3.53;;;1.60;;
74753;SDS011;63271;53.340;-6.260;2024-03-23T11:04:36;7.82;;;1.63;;
74753;SDS011;63271;53.340;-6.260;2024-03-23T11:09:54;4.55;;;1.52;;
74753;SDS011;63271;53.340;-6.260;2024-03-23T11:14:50;7.07;;;1.70;;
74753;SDS011;63271;53.340;-6.260;2024-03-23T11:17:22;5.97;;;1.33;;
74753;SDS011;63271;53.340;-6.260;2024-03-23T11:19:54;6.65;;;1.80;;
74753;SDS011;63271;53.340;-6.260;2024-03-23T11:27:37;7.15;;;2.25;;
74753;SDS011;63271;53.340;-6.260;2024-03-23T11:32:46;8.13;;;2.30;;
74753;SDS011;63271;53.340;-6.260;2024-03-23T11:40:30;5.05;;;1.70;;
74753;SDS011;63271;53.340;-6.260;2024-03-23T11:43:00;6.38;;;1.88;;
74753;SDS011;63271;53.340;-6.260;2024-03-23T11:45:27;10.18;;;2.10;;
74753;SDS011;63271;53.340;-6.260;2024-03-23T11:50:35;6.43;;;1.77;;
74753;SDS011;63271;53.340;-6.260;2024-03-23T11:53:08;9.43;;;2.30;;
74753;SDS011;63271;53.340;-6.260;2024-03-23T11:55:38;7.55;;;2.28;;
74753;SDS011;63271;53.340;-6.260;2024-03-23T11:58:05;8.07;;;2.30;;
74753;SDS011;63271;53.340;-6.260;2024-03-23T12:00:34;8.00;;;2.08;;
74753;SDS011;63271;53.340;-6.260;2024-03-23T12:03:02;10.40;;;2.28;;
74753;SDS011;63271;53.340;-6.260;2024-03-23T12:05:28;7.90;;;2.00;;
74753;SDS011;63271;53.340;-6.260;2024-03-23T12:08:19;7.05;;;1.92;;
74753;SDS011;63271;53.340;-6.260;2024-03-23T12:10:52;6.43;;;1.98;;
74753;SDS011;63271;53.340;-6.260;2024-03-23T12:13:21;8.68;;;2.13;;
74753;SDS011;63271;53.340;-6.260;2024-03-23T12:15:49;8.02;;;1.95;;
74753;SDS011;63271;53.340;-6.260;2024-03-23T12:18:18;8.45;;;2.38;;
74753;SDS011;63271;53.340;-6.260;2024-03-23T12:20:49;6.80;;;2.30;;
74753;SDS011;63271;53.340;-6.260;2024-03-23T12:23:14;9.52;;;2.20;;
74753;SDS011;63271;53.340;-6.260;2024-03-23T12:25:44;6.97;;;2.53;;
74753;SDS011;63271;53.340;-6.260;2024-03-23T12:28:10;10.10;;;2.55;;
74753;SDS011;63271;53.340;-6.260;2024-03-23T12:30:41;10.60;;;2.40;;
74753;SDS011;63271;53.340;-6.260;2024-03-23T12:33:07;12.30;;;2.42;;
74753;SDS011;63271;53.340;-6.260;2024-03-23T12:35:36;8.20;;;2.40;;
74753;SDS011;63271;53.340;-6.260;2024-03-23T12:38:03;9.57;;;2.70;;
74753;SDS011;63271;53.340;-6.260;2024-03-23T12:40:28;6.88;;;2.40;;
74753;SDS011;63271;53.340;-6.260;2024-03-23T12:42:54;7.55;;;1.90;;
74753;SDS011;63271;53.340;-6.260;2024-03-23T12:45:26;6.47;;;2.00;;
74753;SDS011;63271;53.340;-6.260;2024-03-23T12:47:54;9.15;;;2.15;;
74753;SDS011;63271;53.340;-6.260;2024-03-23T12:50:22;10.85;;;2.95;;
74753;SDS011;63271;53.340;-6.260;2024-03-23T12:52:47;8.95;;;2.72;;
74753;SDS011;63271;53.340;-6.260;2024-03-23T12:55:16;6.85;;;1.63;;
74753;SDS011;63271;53.340;-6.260;2024-03-23T12:57:44;8.68;;;2.60;;
74753;SDS011;63271;53.340;-6.260;2024-03-23T13:00:12;9.00;;;2.45;;
74753;SDS011;63271;53.340;-6.260;2024-03-23T13:02:38;7.90;;;2.42;;
74753;SDS011;63271;53.340;-6.260;2024-03-23T13:05:04;8.05;;;2.22;;
74753;SDS011;63271;53.340;-6.260;2024-03-23T13:07:30;10.27;;;2.30;;
74753;SDS011;63271;53.340;-6.260;2024-03-23T13:09:59;6.50;;;1.70;;
74753;SDS011;63271;53.340;-6.260;2024-03-23T13:12:25;7.80;;;2.22;;
74753;SDS011;63271;53.340;-6.260;2024-03-23T13:14:50;8.23;;;2.13;;
74753;SDS011;63271;53.340;-6.260;2024-03-23T13:17:15;7.13;;;1.85;;
74753;SDS011;63271;53.340;-6.260;2024-03-23T13:19:41;12.02;;;2.67;;
74753;SDS011;63271;53.340;-6.260;2024-03-23T13:22:09;7.65;;;2.05;;
74753;SDS011;63271;53.340;-6.260;2024-03-23T13:24:36;7.43;;;1.90;;
74753;SDS011;63271;53.340;-6.260;2024-03-23T13:27:02;8.02;;;1.98;;
74753;SDS011;63271;53.340;-6.260;2024-03-23T13:29:30;6.72;;;1.80;;
74753;SDS011;63271;53.340;-6.260;2024-03-23T13:31:58;8.93;;;2.70;;
74753;SDS011;63271;53.340;-6.260;2024-03-23T13:34:26;7.93;;;2.60;;
74753;SDS011;63271;53.340;-6.260;2024-03-23T13:36:51;6.28;;;2.22;;
74753;SDS011;63271;53.340;-6.260;2024-03-23T13:39:19;10.32;;;2.72;;
74753;SDS011;63271;53.340;-6.260;2024-03-23T13:41:45;10.20;;;3.00;;
74753;SDS011;63271;53.340;-6.260;2024-03-23T13:44:11;12.10;;;2.72;;
74753;SDS011;63271;53.340;-6.260;2024-03-23T13:46:40;11.32;;;2.75;;
74753;SDS011;63271;53.340;-6.260;2024-03-23T13:49:10;9.90;;;2.92;;
74753;SDS011;63271;53.340;-6.260;2024-03-23T13:51:46;11.88;;;3.13;;
74753;SDS011;63271;53.340;-6.260;2024-03-23T13:54:11;9.80;;;2.78;;
74753;SDS011;63271;53.340;-6.260;2024-03-23T13:56:37;9.38;;;2.60;;
74753;SDS011;63271;53.340;-6.260;2024-03-23T13:59:05;9.32;;;2.33;;
74753;SDS011;63271;53.340;-6.260;2024-03-23T14:01:30;19.30;;;3.40;;
74753;SDS011;63271;53.340;-6.260;2024-03-23T14:03:58;7.00;;;2.30;;
74753;SDS011;63271;53.340;-6.260;2024-03-23T14:06:26;10.38;;;2.60;;
74753;SDS011;63271;53.340;-6.260;2024-03-23T14:08:51;7.53;;;2.63;;
74753;SDS011;63271;53.340;-6.260;2024-03-23T14:11:17;8.88;;;2.50;;
74753;SDS011;63271;53.340;-6.260;2024-03-23T14:13:43;8.48;;;2.63;;
74753;SDS011;63271;53.340;-6.260;2024-03-23T14:16:09;8.18;;;2.88;;
74753;SDS011;63271;53.340;-6.260;2024-03-23T14:18:35;9.82;;;2.75;;
74753;SDS011;63271;53.340;-6.260;2024-03-23T14:21:00;7.07;;;2.72;;
74753;SDS011;63271;53.340;-6.260;2024-03-23T14:23:30;14.10;;;3.20;;
74753;SDS011;63271;53.340;-6.260;2024-03-23T14:25:58;9.18;;;2.88;;
74753;SDS011;63271;53.340;-6.260;2024-03-23T14:28:24;12.85;;;3.22;;
74753;SDS011;63271;53.340;-6.260;2024-03-23T14:30:52;13.88;;;4.07;;
74753;SDS011;63271;53.340;-6.260;2024-03-23T14:33:20;12.88;;;3.10;;
74753;SDS011;63271;53.340;-6.260;2024-03-23T14:35:52;12.25;;;3.30;;
74753;SDS011;63271;53.340;-6.260;2024-03-23T14:38:22;9.63;;;3.35;;
74753;SDS011;63271;53.340;-6.260;2024-03-23T14:40:50;10.82;;;3.65;;
74753;SDS011;63271;53.340;-6.260;2024-03-23T14:43:18;11.18;;;3.28;;
74753;SDS011;63271;53.340;-6.260;2024-03-23T14:48:39;11.43;;;3.30;;
74753;SDS011;63271;53.340;-6.260;2024-03-23T14:51:09;15.55;;;4.10;;
74753;SDS011;63271;53.340;-6.260;2024-03-23T14:53:38;13.30;;;3.03;;
74753;SDS011;63271;53.340;-6.260;2024-03-23T14:56:05;10.52;;;3.33;;
74753;SDS011;63271;53.340;-6.260;2024-03-23T14:58:35;11.73;;;3.30;;
74753;SDS011;63271;53.340;-6.260;2024-03-23T15:01:04;14.52;;;3.70;;
74753;SDS011;63271;53.340;-6.260;2024-03-23T15:03:34;13.85;;;3.38;;
74753;SDS011;63271;53.340;-6.260;2024-03-23T15:06:01;13.23;;;3.10;;
74753;SDS011;63271;53.340;-6.260;2024-03-23T15:08:29;12.50;;;3.63;;
74753;SDS011;63271;53.340;-6.260;2024-03-23T15:11:01;15.05;;;3.17;;
74753;SDS011;63271;53.340;-6.260;2024-03-23T15:13:32;15.02;;;3.60;;
74753;SDS011;63271;53.340;-6.260;2024-03-23T15:15:58;11.57;;;3.45;;
74753;SDS011;63271;53.340;-6.260;2024-03-23T15:18:31;8.55;;;2.88;;
74753;SDS011;63271;53.340;-6.260;2024-03-23T15:21:00;12.57;;;2.95;;
74753;SDS011;63271;53.340;-6.260;2024-03-23T15:23:27;12.07;;;3.03;;
74753;SDS011;63271;53.340;-6.260;2024-03-23T15:26:03;12.35;;;3.60;;
74753;SDS011;63271;53.340;-6.260;2024-03-23T15:28:30;10.18;;;2.90;;
74753;SDS011;63271;53.340;-6.260;2024-03-23T15:31:30;13.52;;;3.50;;
74753;SDS011;63271;53.340;-6.260;2024-03-23T15:33:59;11.98;;;2.58;;
74753;SDS011;63271;53.340;-6.260;2024-03-23T15:36:25;8.88;;;2.72;;
74753;SDS011;63271;53.340;-6.260;2024-03-23T15:38:50;14.82;;;3.65;;
74753;SDS011;63271;53.340;-6.260;2024-03-23T15:41:15;10.60;;;2.72;;
74753;SDS011;63271;53.340;-6.260;2024-03-23T15:43:44;9.70;;;2.30;;
74753;SDS011;63271;53.340;-6.260;2024-03-23T15:46:10;11.35;;;2.85;;
74753;SDS011;63271;53.340;-6.260;2024-03-23T15:48:36;10.88;;;2.83;;
74753;SDS011;63271;53.340;-6.260;2024-03-23T15:51:04;12.85;;;3.08;;
74753;SDS011;63271;53.340;-6.260;2024-03-23T15:53:32;7.55;;;2.60;;
74753;SDS011;63271;53.340;-6.260;2024-03-23T15:56:02;9.50;;;2.88;;
74753;SDS011;63271;53.340;-6.260;2024-03-23T15:58:29;10.73;;;2.40;;
74753;SDS011;63271;53.340;-6.260;2024-03-23T16:03:27;10.32;;;2.30;;
74753;SDS011;63271;53.340;-6.260;2024-03-23T16:05:57;11.85;;;2.85;;
74753;SDS011;63271;53.340;-6.260;2024-03-23T16:08:23;11.27;;;2.90;;
74753;SDS011;63271;53.340;-6.260;2024-03-23T16:10:49;10.82;;;2.80;;
74753;SDS011;63271;53.340;-6.260;2024-03-23T16:13:18;8.52;;;2.33;;
74753;SDS011;63271;53.340;-6.260;2024-03-23T16:15:46;11.73;;;3.40;;
74753;SDS011;63271;53.340;-6.260;2024-03-23T16:18:19;10.18;;;2.28;;
74753;SDS011;63271;53.340;-6.260;2024-03-23T16:21:04;12.35;;;2.33;;
74753;SDS011;63271;53.340;-6.260;2024-03-23T16:23:33;10.48;;;2.30;;
74753;SDS011;63271;53.340;-6.260;2024-03-23T16:26:02;11.93;;;2.20;;
74753;SDS011;63271;53.340;-6.260;2024-03-23T16:28:28;8.32;;;2.58;;
74753;SDS011;63271;53.340;-6.260;2024-03-23T16:31:01;11.55;;;2.63;;
74753;SDS011;63271;53.340;-6.260;2024-03-23T16:33:28;8.35;;;2.30;;
74753;SDS011;63271;53.340;-6.260;2024-03-23T16:38:33;10.40;;;2.28;;
74753;SDS011;63271;53.340;-6.260;2024-03-23T16:43:28;8.32;;;2.42;;
74753;SDS011;63271;53.340;-6.260;2024-03-23T16:48:23;8.77;;;2.10;;
74753;SDS011;63271;53.340;-6.260;2024-03-23T16:50:51;6.30;;;2.08;;
74753;SDS011;63271;53.340;-6.260;2024-03-23T16:53:17;7.95;;;1.92;;
74753;SDS011;63271;53.340;-6.260;2024-03-23T16:55:46;7.15;;;1.95;;
74753;SDS011;63271;53.340;-6.260;2024-03-23T16:58:13;13.23;;;2.35;;
74753;SDS011;63271;53.340;-6.260;2024-03-23T17:00:39;9.07;;;2.58;;
74753;SDS011;63271;53.340;-6.260;2024-03-23T17:03:06;9.35;;;1.90;;
74753;SDS011;63271;53.340;-6.260;2024-03-23T17:05:38;8.73;;;2.25;;
74753;SDS011;63271;53.340;-6.260;2024-03-23T17:08:03;7.70;;;2.22;;
74753;SDS011;63271;53.340;-6.260;2024-03-23T17:10:35;7.50;;;2.08;;
74753;SDS011;63271;53.340;-6.260;2024-03-23T17:13:00;5.82;;;1.95;;
74753;SDS011;63271;53.340;-6.260;2024-03-23T17:15:28;9.77;;;2.42;;
74753;SDS011;63271;53.340;-6.260;2024-03-23T17:17:53;6.40;;;2.20;;
74753;SDS011;63271;53.340;-6.260;2024-03-23T17:20:21;8.95;;;2.22;;
74753;SDS011;63271;53.340;-6.260;2024-03-23T17:22:52;8.85;;;2.22;;
74753;SDS011;63271;53.340;-6.260;2024-03-23T17:25:21;8.65;;;2.03;;
74753;SDS011;63271;53.340;-6.260;2024-03-23T17:27:47;10.80;;;2.60;;
74753;SDS011;63271;53.340;-6.260;2024-03-23T17:30:15;11.25;;;2.17;;
74753;SDS011;63271;53.340;-6.260;2024-03-23T17:32:45;5.70;;;2.05;;
74753;SDS011;63271;53.340;-6.260;2024-03-23T17:35:13;9.40;;;2.53;;
74753;SDS011;63271;53.340;-6.260;2024-03-23T17:37:39;12.07;;;2.15;;
74753;SDS011;63271;53.340;-6.260;2024-03-23T17:40:06;12.07;;;2.67;;
74753;SDS011;63271;53.340;-6.260;2024-03-23T17:42:36;5.97;;;2.03;;
74753;SDS011;63271;53.340;-6.260;2024-03-23T17:45:02;11.93;;;2.50;;
74753;SDS011;63271;53.340;-6.260;2024-03-23T17:47:39;11.75;;;2.65;;
74753;SDS011;63271;53.340;-6.260;2024-03-23T17:50:07;9.05;;;2.20;;
74753;SDS011;63271;53.340;-6.260;2024-03-23T17:52:33;9.30;;;2.28;;
74753;SDS011;63271;53.340;-6.260;2024-03-23T17:54:59;6.68;;;2.25;;
74753;SDS011;63271;53.340;-6.260;2024-03-23T17:57:25;7.00;;;2.00;;
74753;SDS011;63271;53.340;-6.260;2024-03-23T17:59:53;6.00;;;2.03;;
74753;SDS011;63271;53.340;-6.260;2024-03-23T18:02:19;7.30;;;1.88;;
74753;SDS011;63271;53.340;-6.260;2024-03-23T18:04:49;9.70;;;2.33;;
74753;SDS011;63271;53.340;-6.260;2024-03-23T18:07:15;10.18;;;2.00;;
74753;SDS011;63271;53.340;-6.260;2024-03-23T18:09:41;10.50;;;2.50;;
74753;SDS011;63271;53.340;-6.260;2024-03-23T18:12:09;8.88;;;2.30;;
74753;SDS011;63271;53.340;-6.260;2024-03-23T18:14:35;6.38;;;1.73;;
74753;SDS011;63271;53.340;-6.260;2024-03-23T18:17:03;7.60;;;2.45;;
74753;SDS011;63271;53.340;-6.260;2024-03-23T18:19:29;7.95;;;1.90;;
74753;SDS011;63271;53.340;-6.260;2024-03-23T18:21:54;8.85;;;1.95;;
74753;SDS011;63271;53.340;-6.260;2024-03-23T18:24:22;6.13;;;1.92;;
74753;SDS011;63271;53.340;-6.260;2024-03-23T18:26:52;6.88;;;2.20;;
74753;SDS011;63271;53.340;-6.260;2024-03-23T18:29:23;8.18;;;2.25;;
74753;SDS011;63271;53.340;-6.260;2024-03-23T18:31:49;8.88;;;2.00;;
74753;SDS011;63271;53.340;-6.260;2024-03-23T18:34:17;6.60;;;2.10;;
74753;SDS011;63271;53.340;-6.260;2024-03-23T18:36:45;8.65;;;1.83;;
74753;SDS011;63271;53.340;-6.260;2024-03-23T18:39:10;7.35;;;2.17;;
74753;SDS011;63271;53.340;-6.260;2024-03-23T18:41:37;5.47;;;1.70;;
74753;SDS011;63271;53.340;-6.260;2024-03-23T18:44:05;7.07;;;1.90;;
74753;SDS011;63271;53.340;-6.260;2024-03-23T18:46:33;5.78;;;1.85;;
74753;SDS011;63271;53.340;-6.260;2024-03-23T18:48:58;7.45;;;2.30;;
74753;SDS011;63271;53.340;-6.260;2024-03-23T18:51:28;6.45;;;1.95;;
74753;SDS011;63271;53.340;-6.260;2024-03-23T18:53:53;9.38;;;2.35;;
74753;SDS011;63271;53.340;-6.260;2024-03-23T18:56:19;5.30;;;1.83;;
74753;SDS011;63271;53.340;-6.260;2024-03-23T18:58:47;6.20;;;1.95;;
74753;SDS011;63271;53.340;-6.260;2024-03-23T19:01:15;5.78;;;1.98;;
74753;SDS011;63271;53.340;-6.260;2024-03-23T19:03:40;7.88;;;1.83;;
74753;SDS011;63271;53.340;-6.260;2024-03-23T19:06:08;5.50;;;1.73;;
74753;SDS011;63271;53.340;-6.260;2024-03-23T19:08:33;9.25;;;2.00;;
74753;SDS011;63271;53.340;-6.260;2024-03-23T19:10:59;6.47;;;1.95;;
74753;SDS011;63271;53.340;-6.260;2024-03-23T19:13:26;7.20;;;2.13;;
74753;SDS011;63271;53.340;-6.260;2024-03-23T19:15:52;6.38;;;2.17;;
74753;SDS011;63271;53.340;-6.260;2024-03-23T19:18:18;7.22;;;1.92;;
74753;SDS011;63271;53.340;-6.260;2024-03-23T19:20:50;8.55;;;1.90;;
74753;SDS011;63271;53.340;-6.260;2024-03-23T19:23:20;6.60;;;1.98;;
74753;SDS011;63271;53.340;-6.260;2024-03-23T19:25:55;4.85;;;1.70;;
74753;SDS011;63271;53.340;-6.260;2024-03-23T19:28:21;4.57;;;1.80;;
74753;SDS011;63271;53.340;-6.260;2024-03-23T19:30:50;4.25;;;1.42;;
74753;SDS011;63271;53.340;-6.260;2024-03-23T19:33:16;5.72;;;1.80;;
74753;SDS011;63271;53.340;-6.260;2024-03-23T19:35:41;4.60;;;1.90;;
74753;SDS011;63271;53.340;-6.260;2024-03-23T19:38:10;5.53;;;1.58;;
74753;SDS011;63271;53.340;-6.260;2024-03-23T19:40:37;5.70;;;1.73;;
74753;SDS011;63271;53.340;-6.260;2024-03-23T19:43:03;4.47;;;1.90;;
74753;SDS011;63271;53.340;-6.260;2024-03-23T19:45:28;7.55;;;1.70;;
74753;SDS011;63271;53.340;-6.260;2024-03-23T19:47:59;9.40;;;1.98;;
74753;SDS011;63271;53.340;-6.260;2024-03-23T19:50:34;4.10;;;1.75;;
74753;SDS011;63271;53.340;-6.260;2024-03-23T19:52:59;6.72;;;1.95;;
74753;SDS011;63271;53.340;-6.260;2024-03-23T19:55:25;5.47;;;2.05;;
74753;SDS011;63271;53.340;-6.260;2024-03-23T19:57:50;5.38;;;1.70;;
74753;SDS011;63271;53.340;-6.260;2024-03-23T20:00:18;6.20;;;1.90;;
